Time;durP1;ratioP1;P1;durP2;ratioP2;P2;SDS_P1;SDS_P2;PMS_P1;PMS_P2;Temp;Humidity;BMP_temperature;BMP_pressure;BME280_temperature;BME280_humidity;BME280_pressure;Samples;Min_cycle;Max_cycle;Signal;HPM_P1;HPM_P2
2021/12/31 15:17:42;;;;;;;7.28;1.88;;;13.20;99.90;;;;;;5277802;23;20517;-70
2021/12/31 15:20:10;;;;;;;5.47;1.80;;;13.00;99.90;;;;;;4985859;28;20066;-71
2021/12/31 15:22:36;;;;;;;6.45;1.60;;;13.00;99.90;;;;;;4970843;28;20047;-72
2021/12/31 15:25:05;;;;;;;5.70;1.88;;;12.90;99.90;;;;;;4953782;28;20054;-71
2021/12/31 15:27:32;;;;;;;4.57;1.73;;;12.80;99.90;;;;;;4963508;28;20071;-72
2021/12/31 15:29:59;;;;;;;7.75;2.00;;;12.80;99.90;;;;;;4974099;28;20051;-70
2021/12/31 15:32:26;;;;;;;4.63;1.98;;;12.90;99.90;;;;;;4972890;28;20051;-69
2021/12/31 15:34:55;;;;;;;5.38;2.08;;;12.80;99.90;;;;;;4971568;28;20074;-70
2021/12/31 15:37:22;;;;;;;7.07;2.30;;;12.70;99.90;;;;;;4973470;28;20111;-70
2021/12/31 15:39:49;;;;;;;3.97;1.50;;;12.70;99.90;;;;;;4973389;28;20090;-70
2021/12/31 15:42:16;;;;;;;4.97;1.60;;;12.80;99.90;;;;;;4973201;28;20051;-69
2021/12/31 15:44:43;;;;;;;5.47;1.88;;;12.80;99.90;;;;;;4973197;28;20086;-70
2021/12/31 15:47:11;;;;;;;3.97;1.63;;;12.60;99.90;;;;;;4973734;28;20138;-69
2021/12/31 15:49:38;;;;;;;8.20;2.00;;;12.60;99.90;;;;;;4973550;28;20047;-70
2021/12/31 15:52:07;;;;;;;5.05;1.60;;;12.50;99.90;;;;;;4973743;28;20601;-69
2021/12/31 15:54:34;;;;;;;5.47;1.90;;;12.50;99.90;;;;;;4973402;28;20138;-70
2021/12/31 15:57:01;;;;;;;6.03;1.90;;;12.50;99.90;;;;;;4973571;28;20109;-69
2021/12/31 15:59:28;;;;;;;5.45;2.10;;;12.50;99.90;;;;;;4973658;28;20081;-70
2021/12/31 16:01:55;;;;;;;8.27;2.10;;;12.30;99.90;;;;;;4973417;28;20059;-70
2021/12/31 16:04:22;;;;;;;7.30;2.60;;;12.20;99.90;;;;;;4973632;28;20057;-70
2021/12/31 16:06:49;;;;;;;6.85;2.55;;;12.30;99.90;;;;;;4973393;28;20578;-70
2021/12/31 16:09:17;;;;;;;9.55;2.97;;;12.30;99.90;;;;;;4973431;28;20137;-70
2021/12/31 16:11:44;;;;;;;3.78;1.85;;;12.30;99.90;;;;;;4973680;28;20126;-70
2021/12/31 16:14:11;;;;;;;5.05;2.28;;;12.40;99.90;;;;;;4973198;28;20130;-70
2021/12/31 16:16:38;;;;;;;5.55;2.30;;;12.30;99.90;;;;;;4973317;28;20133;-70
2021/12/31 16:19:05;;;;;;;6.53;2.08;;;12.20;99.90;;;;;;4973711;28;20129;-69
2021/12/31 16:21:32;;;;;;;4.70;1.92;;;12.30;99.90;;;;;;4973578;28;20121;-70
2021/12/31 16:23:59;;;;;;;5.82;2.15;;;12.30;99.90;;;;;;4973370;28;20057;-69
2021/12/31 16:26:27;;;;;;;4.95;2.22;;;12.30;99.90;;;;;;4973192;28;20050;-70
2021/12/31 16:28:54;;;;;;;5.80;2.60;;;12.20;99.90;;;;;;4973260;28;20151;-69
2021/12/31 16:31:21;;;;;;;8.43;2.97;;;12.10;99.90;;;;;;4973107;28;20157;-70
2021/12/31 16:33:48;;;;;;;7.05;2.45;;;12.10;99.90;;;;;;4973445;28;20484;-70
2021/12/31 16:36:15;;;;;;;5.05;2.22;;;12.00;99.90;;;;;;4972115;28;20097;-71
2021/12/31 16:38:42;;;;;;;7.75;3.95;;;11.90;99.90;;;;;;4973149;28;20086;-71
2021/12/31 16:41:09;;;;;;;48.13;32.92;;;11.80;99.90;;;;;;4972778;28;20569;-71
2021/12/31 16:43:38;;;;;;;10.35;6.13;;;11.90;99.90;;;;;;4973023;28;20179;-71
2021/12/31 16:46:05;;;;;;;17.38;9.63;;;11.80;99.90;;;;;;4972718;28;20149;-72
2021/12/31 16:48:31;;;;;;;14.05;6.80;;;11.70;99.90;;;;;;4973393;28;20059;-71
2021/12/31 16:50:59;;;;;;;19.40;13.00;;;11.90;99.90;;;;;;4972812;28;20138;-70
2021/12/31 16:53:25;;;;;;;13.43;6.80;;;11.80;99.90;;;;;;4972922;28;20047;-71
2021/12/31 16:55:53;;;;;;;12.05;5.30;;;11.60;99.90;;;;;;4972888;28;20062;-71
2021/12/31 16:58:20;;;;;;;8.90;2.38;;;11.70;99.90;;;;;;4972839;28;20105;-72
2021/12/31 17:00:48;;;;;;;8.75;4.05;;;11.70;99.90;;;;;;4972733;28;20054;-70
2021/12/31 17:03:15;;;;;;;9.98;5.28;;;11.60;99.90;;;;;;4972751;28;20101;-71
2021/12/31 17:05:42;;;;;;;9.93;4.88;;;11.40;99.90;;;;;;4972682;28;20134;-71
2021/12/31 17:08:09;;;;;;;12.05;5.28;;;11.30;99.90;;;;;;4972930;28;20089;-71
2021/12/31 17:10:36;;;;;;;9.65;4.35;;;11.20;99.90;;;;;;4972828;28;20047;-71
2021/12/31 17:13:04;;;;;;;11.93;3.60;;;11.30;99.90;;;;;;4972682;28;20062;-71
2021/12/31 17:15:31;;;;;;;7.53;2.60;;;11.50;99.90;;;;;;4972595;28;20051;-72
2021/12/31 17:18:02;;;;;;;7.20;3.33;;;11.60;99.90;;;;;;4972831;28;20082;-70
2021/12/31 17:20:29;;;;;;;7.03;2.78;;;11.80;99.90;;;;;;4972677;28;20113;-70
2021/12/31 17:22:57;;;;;;;9.32;3.83;;;11.70;99.90;;;;;;4972514;28;20110;-69
2021/12/31 17:25:24;;;;;;;7.97;3.95;;;11.70;99.90;;;;;;4972658;28;20055;-69
2021/12/31 17:27:51;;;;;;;11.57;6.30;;;11.70;99.90;;;;;;4972575;28;20082;-70
2021/12/31 17:30:18;;;;;;;8.13;4.10;;;11.80;99.90;;;;;;4972337;28;20046;-69
2021/12/31 17:32:45;;;;;;;10.90;3.55;;;11.70;99.90;;;;;;4972483;28;20047;-70
2021/12/31 17:35:13;;;;;;;10.63;3.80;;;11.60;99.90;;;;;;4972164;28;20130;-70
2021/12/31 17:37:41;;;;;;;9.38;3.85;;;11.50;99.90;;;;;;4972538;28;20050;-70
2021/12/31 17:40:10;;;;;;;8.68;4.05;;;11.40;99.90;;;;;;4972404;28;20141;-70
2021/12/31 17:42:37;;;;;;;11.85;3.35;;;11.30;99.90;;;;;;4972077;28;20134;-70
2021/12/31 17:45:06;;;;;;;10.40;4.53;;;11.30;99.90;;;;;;4972131;28;20138;-70
2021/12/31 17:47:33;;;;;;;9.63;3.85;;;11.30;99.90;;;;;;4973136;28;20090;-70
2021/12/31 17:50:00;;;;;;;10.75;4.25;;;11.20;99.90;;;;;;4976012;28;20109;-70
2021/12/31 17:52:28;;;;;;;12.55;5.22;;;11.10;99.90;;;;;;4975666;28;20138;-69
2021/12/31 17:54:55;;;;;;;8.75;4.80;;;11.00;99.90;;;;;;4976128;28;20583;-69
2021/12/31 17:57:22;;;;;;;8.75;3.95;;;11.00;99.90;;;;;;4976076;28;20051;-70
2021/12/31 17:59:49;;;;;;;9.02;4.50;;;10.90;99.90;;;;;;4976320;28;20130;-70
2021/12/31 18:02:16;;;;;;;10.23;3.97;;;10.90;99.90;;;;;;4975706;28;20070;-70
2021/12/31 18:04:43;;;;;;;15.65;6.75;;;10.90;99.90;;;;;;4975629;28;20462;-69
2021/12/31 18:07:10;;;;;;;20.30;8.48;;;10.60;99.90;;;;;;4975855;28;20082;-72
2021/12/31 18:09:39;;;;;;;19.73;8.90;;;10.40;99.90;;;;;;4976074;28;20470;-71
2021/12/31 18:12:07;;;;;;;11.70;6.60;;;10.20;99.90;;;;;;4975741;28;20055;-72
2021/12/31 18:14:34;;;;;;;15.30;7.07;;;10.30;99.90;;;;;;4975715;28;20468;-72
2021/12/31 18:17:01;;;;;;;18.88;7.90;;;10.30;99.90;;;;;;4975633;28;20105;-71
2021/12/31 18:19:28;;;;;;;14.35;6.38;;;10.30;99.90;;;;;;4975772;28;20078;-72
2021/12/31 18:21:55;;;;;;;13.45;6.28;;;10.20;99.90;;;;;;4975566;28;20137;-71
2021/12/31 18:24:22;;;;;;;16.50;7.50;;;9.90;99.90;;;;;;4975796;28;20078;-71
2021/12/31 18:26:50;;;;;;;19.48;9.80;;;9.80;99.90;;;;;;4975335;28;20538;-71
2021/12/31 18:29:17;;;;;;;17.42;8.23;;;9.70;99.90;;;;;;4975823;28;20251;-71
2021/12/31 18:31:44;;;;;;;20.88;13.43;;;9.80;99.90;;;;;;4975229;28;20047;-71
2021/12/31 18:34:11;;;;;;;12.20;7.45;;;9.70;99.90;;;;;;4975409;28;20051;-72
2021/12/31 18:36:38;;;;;;;19.20;14.38;;;9.70;99.90;;;;;;4975578;28;20102;-71
2021/12/31 18:39:05;;;;;;;17.60;10.13;;;9.70;99.90;;;;;;4975257;28;20089;-71
2021/12/31 18:41:33;;;;;;;23.42;13.48;;;9.80;99.90;;;;;;4975519;28;20133;-71
2021/12/31 18:44:01;;;;;;;14.73;7.95;;;9.80;99.90;;;;;;4975275;28;20142;-70
2021/12/31 18:46:30;;;;;;;15.93;9.77;;;10.00;99.90;;;;;;4975138;28;20133;-70
2021/12/31 18:49:01;;;;;;;30.48;15.68;;;10.20;99.90;;;;;;4975173;28;20046;-70
2021/12/31 18:51:28;;;;;;;38.60;21.63;;;10.20;99.90;;;;;;4975191;28;20142;-70
2021/12/31 18:53:55;;;;;;;17.38;8.15;;;10.30;99.90;;;;;;4974770;28;20086;-70
2021/12/31 18:56:23;;;;;;;10.82;6.10;;;10.40;99.90;;;;;;4974995;28;20050;-70
2021/12/31 18:58:51;;;;;;;30.08;18.00;;;10.50;99.90;;;;;;4974058;28;20082;-70
2021/12/31 19:01:20;;;;;;;23.30;11.68;;;10.50;99.90;;;;;;4974751;28;20089;-70
2021/12/31 19:03:48;;;;;;;20.35;11.43;;;10.50;99.90;;;;;;4974731;28;20090;-70
2021/12/31 19:06:15;;;;;;;15.70;9.52;;;10.40;99.90;;;;;;4974608;28;20082;-70
2021/12/31 19:08:42;;;;;;;12.10;6.38;;;10.50;99.90;;;;;;4974404;28;20086;-70
2021/12/31 19:11:09;;;;;;;12.68;5.95;;;10.60;99.90;;;;;;4974462;28;20089;-70
2021/12/31 19:13:36;;;;;;;12.60;5.30;;;10.60;99.90;;;;;;4974495;28;20104;-70
2021/12/31 19:16:04;;;;;;;10.88;5.10;;;10.60;99.90;;;;;;4974273;28;20487;-71
2021/12/31 19:18:32;;;;;;;10.05;4.88;;;10.70;99.90;;;;;;4974316;28;20055;-71
2021/12/31 19:21:00;;;;;;;11.48;5.78;;;10.70;99.90;;;;;;4974719;28;20082;-72
2021/12/31 19:23:28;;;;;;;18.27;8.75;;;10.50;99.90;;;;;;4974377;28;20490;-72
2021/12/31 19:25:55;;;;;;;12.65;5.82;;;10.60;99.90;;;;;;4974289;28;20134;-71
2021/12/31 19:28:22;;;;;;;11.02;5.43;;;10.50;99.90;;;;;;4974208;28;20093;-71
2021/12/31 19:30:50;;;;;;;10.95;4.97;;;10.50;99.90;;;;;;4974318;28;20130;-72
2021/12/31 19:33:17;;;;;;;22.25;10.48;;;10.40;99.90;;;;;;4974216;28;20078;-71
2021/12/31 19:35:46;;;;;;;18.02;9.10;;;10.40;99.90;;;;;;4974280;28;20083;-72
2021/12/31 19:38:14;;;;;;;29.33;17.30;;;10.60;99.90;;;;;;4974349;28;20129;-71
2021/12/31 19:40:41;;;;;;;27.25;11.95;;;10.50;99.90;;;;;;4972468;28;20538;-71
2021/12/31 19:43:09;;;;;;;34.15;15.50;;;10.40;99.90;;;;;;4978752;28;20086;-72
2021/12/31 19:45:39;;;;;;;17.92;8.88;;;10.40;99.90;;;;;;4993136;28;20086;-72
2021/12/31 19:48:07;;;;;;;31.33;18.02;;;10.40;99.90;;;;;;4993662;28;20054;-71
2021/12/31 19:50:35;;;;;;;21.17;11.85;;;10.50;99.90;;;;;;4972499;28;20543;-71
2021/12/31 19:53:05;;;;;;;10.10;5.35;;;10.40;99.90;;;;;;4961602;28;20047;-72
2021/12/31 19:55:31;;;;;;;10.85;4.93;;;10.40;99.90;;;;;;4954902;29;20364;-72
2021/12/31 19:57:58;;;;;;;10.52;4.03;;;10.40;99.90;;;;;;4954383;29;20497;-70
2021/12/31 20:00:25;;;;;;;11.00;5.57;;;10.50;99.90;;;;;;4965700;28;20129;-70
2021/12/31 20:02:52;;;;;;;11.65;6.32;;;10.40;99.90;;;;;;4955088;28;20539;-70
2021/12/31 20:05:21;;;;;;;8.43;3.30;;;10.20;99.90;;;;;;4953981;29;20146;-70
2021/12/31 20:07:47;;;;;;;7.50;3.83;;;10.30;99.90;;;;;;4954316;29;20095;-70
2021/12/31 20:10:16;;;;;;;6.97;3.60;;;10.30;99.90;;;;;;4954076;28;20130;-69
2021/12/31 20:12:44;;;;;;;8.77;4.10;;;10.30;99.90;;;;;;4954019;28;20524;-70
2021/12/31 20:15:12;;;;;;;6.30;3.50;;;10.20;99.90;;;;;;4953556;29;20480;-70
2021/12/31 20:17:39;;;;;;;8.55;3.95;;;10.10;99.90;;;;;;4953991;29;20086;-70
2021/12/31 20:20:08;;;;;;;10.02;5.72;;;10.10;99.90;;;;;;4953838;29;20047;-70
2021/12/31 20:22:36;;;;;;;42.08;25.63;;;10.20;99.90;;;;;;4953993;29;20504;-70
2021/12/31 20:25:04;;;;;;;11.80;4.80;;;10.30;99.90;;;;;;4953905;29;20082;-70
2021/12/31 20:27:33;;;;;;;9.52;4.93;;;10.40;99.90;;;;;;4954312;29;20122;-70
2021/12/31 20:30:00;;;;;;;8.80;4.22;;;10.40;99.90;;;;;;4954537;28;20082;-71
2021/12/31 20:32:27;;;;;;;8.20;3.60;;;10.50;99.90;;;;;;4955110;29;20131;-71
2021/12/31 20:34:54;;;;;;;12.95;6.57;;;10.60;99.90;;;;;;4954840;29;20145;-71
2021/12/31 20:37:21;;;;;;;10.65;4.47;;;10.60;99.90;;;;;;4955756;29;20078;-71
2021/12/31 20:39:48;;;;;;;12.90;6.45;;;10.60;99.90;;;;;;4956056;28;20093;-71
2021/12/31 20:42:16;;;;;;;12.20;6.28;;;10.70;99.90;;;;;;4955247;29;20145;-71
2021/12/31 20:44:45;;;;;;;10.55;5.38;;;10.70;99.90;;;;;;4954162;29;20094;-70
2021/12/31 20:47:12;;;;;;;10.13;4.13;;;10.60;99.90;;;;;;4953848;28;20126;-71
2021/12/31 20:49:39;;;;;;;9.98;3.90;;;10.60;99.90;;;;;;4954053;28;20083;-70
2021/12/31 20:52:07;;;;;;;7.70;3.85;;;10.70;99.90;;;;;;4953862;29;20094;-71
2021/12/31 20:54:34;;;;;;;9.80;4.20;;;10.60;99.90;;;;;;4953575;28;20392;-70
2021/12/31 20:57:01;;;;;;;8.05;4.03;;;10.60;99.90;;;;;;4953313;29;20105;-71
2021/12/31 20:59:29;;;;;;;8.23;4.60;;;10.50;99.90;;;;;;4953782;28;20543;-70
2021/12/31 21:01:57;;;;;;;7.40;3.60;;;10.60;99.90;;;;;;4953296;29;20106;-70
2021/12/31 21:04:24;;;;;;;18.15;9.68;;;10.60;99.90;;;;;;4953566;29;20496;-70
2021/12/31 21:06:51;;;;;;;9.80;4.22;;;10.60;99.90;;;;;;4953302;29;20131;-70
2021/12/31 21:09:18;;;;;;;7.85;4.57;;;10.70;99.90;;;;;;4953510;28;20138;-70
2021/12/31 21:11:45;;;;;;;14.30;8.77;;;10.60;99.90;;;;;;4953007;28;20138;-70
2021/12/31 21:14:12;;;;;;;10.40;4.82;;;10.60;99.90;;;;;;4953446;29;20051;-71
2021/12/31 21:16:39;;;;;;;9.55;4.80;;;10.70;99.90;;;;;;4953152;29;20197;-70
2021/12/31 21:19:07;;;;;;;24.70;11.68;;;10.70;99.90;;;;;;4953460;28;20099;-70
2021/12/31 21:21:34;;;;;;;8.07;4.43;;;10.70;99.90;;;;;;4953223;28;20074;-70
2021/12/31 21:24:01;;;;;;;13.68;7.30;;;10.80;99.90;;;;;;4956635;29;20086;-71
2021/12/31 21:26:28;;;;;;;13.00;5.95;;;10.80;99.90;;;;;;4957454;29;20109;-70
2021/12/31 21:28:55;;;;;;;9.88;4.75;;;10.80;99.90;;;;;;4977386;23;20081;-67
2021/12/31 21:31:22;;;;;;;20.95;12.98;;;10.90;99.90;;;;;;4996668;28;20106;-67
2021/12/31 21:33:49;;;;;;;30.80;17.33;;;10.90;99.90;;;;;;4996305;28;20082;-67
2021/12/31 21:36:17;;;;;;;47.42;19.75;;;10.90;99.90;;;;;;4996036;28;20050;-67
2021/12/31 21:38:44;;;;;;;55.13;27.15;;;10.90;99.90;;;;;;4996006;28;20129;-67
2021/12/31 21:41:11;;;;;;;39.05;21.88;;;11.00;99.90;;;;;;4999057;28;20088;-68
2021/12/31 21:43:38;;;;;;;11.07;5.82;;;10.90;99.90;;;;;;4997883;28;20133;-68
2021/12/31 21:46:05;;;;;;;23.08;12.38;;;11.00;99.90;;;;;;4995691;28;20097;-68
2021/12/31 21:48:36;;;;;;;10.10;4.80;;;11.00;99.90;;;;;;4995718;28;20133;-68
2021/12/31 21:51:03;;;;;;;36.88;17.80;;;11.10;99.90;;;;;;4995809;28;20050;-68
2021/12/31 21:53:31;;;;;;;47.05;25.52;;;11.20;99.90;;;;;;4995497;28;20087;-68
2021/12/31 21:55:58;;;;;;;36.13;19.02;;;11.20;99.90;;;;;;4995571;28;20081;-68
2021/12/31 21:58:25;;;;;;;330.42;173.73;;;11.20;99.90;;;;;;4995685;28;20581;-68
2021/12/31 22:00:52;;;;;;;11.35;6.38;;;11.20;99.90;;;;;;4995712;28;20137;-68
2021/12/31 22:03:19;;;;;;;16.25;9.15;;;11.20;99.90;;;;;;4995658;28;20129;-68
2021/12/31 22:05:47;;;;;;;15.27;8.48;;;11.30;99.90;;;;;;4995272;28;20579;-68
2021/12/31 22:08:14;;;;;;;11.57;5.32;;;11.30;99.90;;;;;;4995298;28;20046;-68
2021/12/31 22:10:42;;;;;;;17.27;8.40;;;11.30;99.90;;;;;;4995053;28;20137;-68
2021/12/31 22:13:09;;;;;;;29.55;15.57;;;11.30;99.90;;;;;;4995229;28;20572;-68
2021/12/31 22:15:36;;;;;;;36.65;21.55;;;11.30;99.90;;;;;;4995082;28;20126;-68
2021/12/31 22:18:05;;;;;;;200.00;127.60;;;11.30;99.90;;;;;;4995184;28;20081;-68
2021/12/31 22:20:32;;;;;;;26.27;15.15;;;11.30;99.90;;;;;;4995046;28;20054;-68
2021/12/31 22:22:59;;;;;;;34.33;19.63;;;11.30;99.90;;;;;;4995017;28;20149;-68
2021/12/31 22:25:28;;;;;;;32.03;19.30;;;11.30;99.90;;;;;;4994806;28;20133;-68
2021/12/31 22:27:56;;;;;;;27.80;15.75;;;11.40;99.90;;;;;;4995308;28;20054;-68
2021/12/31 22:30:23;;;;;;;30.55;16.70;;;11.40;99.90;;;;;;4994766;28;20082;-68
2021/12/31 22:32:50;;;;;;;26.45;16.42;;;11.40;99.90;;;;;;4994897;28;20573;-68
2021/12/31 22:35:17;;;;;;;15.65;8.60;;;11.40;99.90;;;;;;4993479;28;20141;-68
2021/12/31 22:37:44;;;;;;;31.27;18.85;;;11.40;99.90;;;;;;4994802;28;20467;-68
2021/12/31 22:40:12;;;;;;;36.38;17.63;;;11.50;99.90;;;;;;4994994;28;20089;-68
2021/12/31 22:42:39;;;;;;;10.60;4.53;;;11.50;99.90;;;;;;4994663;28;20568;-68
2021/12/31 22:45:09;;;;;;;29.60;15.70;;;11.40;99.90;;;;;;4994839;28;20511;-68
2021/12/31 22:47:37;;;;;;;28.17;14.48;;;11.40;99.90;;;;;;4995092;28;20140;-68
2021/12/31 22:50:06;;;;;;;67.75;41.38;;;11.40;99.90;;;;;;4994833;28;20517;-68
2021/12/31 22:52:33;;;;;;;175.18;87.85;;;11.40;99.90;;;;;;4994550;28;20137;-68
2021/12/31 22:54:59;;;;;;;23.73;13.88;;;11.40;99.90;;;;;;4996594;28;20114;-68
2021/12/31 22:57:26;;;;;;;52.95;30.48;;;11.40;99.90;;;;;;4995432;28;20534;-68
2021/12/31 22:59:53;;;;;;;28.25;17.52;;;11.50;99.90;;;;;;4994897;28;20078;-68
2021/12/31 23:02:22;;;;;;;18.88;10.90;;;11.40;99.90;;;;;;4994223;28;20133;-68
2021/12/31 23:04:48;;;;;;;12.63;8.25;;;11.40;99.90;;;;;;4994621;28;20101;-68
2021/12/31 23:07:15;;;;;;;17.15;9.40;;;11.40;99.90;;;;;;4994405;28;20092;-68
2021/12/31 23:09:42;;;;;;;30.08;19.30;;;11.40;99.90;;;;;;4994404;28;20109;-68
2021/12/31 23:12:12;;;;;;;24.73;14.13;;;11.40;99.90;;;;;;4994627;28;20097;-68
2021/12/31 23:14:39;;;;;;;36.28;20.45;;;11.40;99.90;;;;;;4994103;28;20061;-68
2021/12/31 23:17:06;;;;;;;65.88;30.58;;;11.40;99.90;;;;;;4994857;28;20069;-68
2021/12/31 23:19:35;;;;;;;57.47;37.00;;;11.40;99.90;;;;;;4994025;28;20489;-68
2021/12/31 23:22:02;;;;;;;128.82;60.28;;;11.30;99.90;;;;;;4994297;28;20572;-68
2021/12/31 23:24:29;;;;;;;32.65;17.83;;;11.40;99.90;;;;;;4994155;28;20101;-68
2021/12/31 23:26:58;;;;;;;26.88;16.17;;;11.40;99.90;;;;;;4994086;28;20133;-68
2021/12/31 23:29:25;;;;;;;32.50;16.27;;;11.40;99.90;;;;;;4993874;28;20076;-68
2021/12/31 23:31:52;;;;;;;16.15;9.98;;;11.40;99.90;;;;;;4993991;28;20054;-68
2021/12/31 23:34:19;;;;;;;46.85;22.40;;;11.40;99.90;;;;;;5006051;28;20057;-68
2021/12/31 23:36:47;;;;;;;35.55;18.45;;;11.40;99.90;;;;;;5000806;28;20056;-68
2021/12/31 23:39:16;;;;;;;28.75;15.88;;;11.40;99.90;;;;;;4993997;28;20137;-68
2021/12/31 23:41:48;;;;;;;38.00;22.13;;;11.40;99.90;;;;;;4994235;28;20061;-68
2021/12/31 23:44:20;;;;;;;112.43;77.90;;;11.40;99.90;;;;;;4993881;28;20062;-68
2021/12/31 23:46:48;;;;;;;20.05;12.02;;;11.40;99.90;;;;;;4993506;28;20502;-68
2021/12/31 23:49:16;;;;;;;27.75;10.98;;;11.40;99.90;;;;;;4993409;28;20050;-68
2021/12/31 23:51:44;;;;;;;20.10;10.07;;;11.40;99.90;;;;;;4993454;28;20502;-68
2021/12/31 23:54:13;;;;;;;21.90;12.88;;;11.40;99.90;;;;;;4993682;28;20082;-68
2021/12/31 23:56:40;;;;;;;21.05;11.23;;;11.40;99.90;;;;;;4992990;28;20593;-68
2021/12/31 23:59:07;;;;;;;20.58;11.98;;;11.40;99.90;;;;;;4993616;28;20586;-68
